sensor_id;sensor_type;location;lat;lon;timestamp;P1;durP1;ratioP1;P2;durP2;ratioP2
66601;SDS011;53459;51.828;7.872;2022-10-16T00:00:35;11.43;;;4.25;;
66601;SDS011;53459;51.828;7.872;2022-10-16T00:03:01;11.82;;;4.20;;
66601;SDS011;53459;51.828;7.872;2022-10-16T00:05:27;11.83;;;4.17;;
66601;SDS011;53459;51.828;7.872;2022-10-16T00:07:52;8.03;;;3.80;;
66601;SDS011;53459;51.828;7.872;2022-10-16T00:10:17;10.27;;;4.10;;
66601;SDS011;53459;51.828;7.872;2022-10-16T00:14:12;11.18;;;4.75;;
66601;SDS011;53459;51.828;7.872;2022-10-16T00:16:38;9.65;;;4.30;;
66601;SDS011;53459;51.828;7.872;2022-10-16T00:19:03;10.13;;;4.20;;
66601;SDS011;53459;51.828;7.872;2022-10-16T00:21:29;11.63;;;4.50;;
66601;SDS011;53459;51.828;7.872;2022-10-16T00:23:59;10.32;;;4.43;;
66601;SDS011;53459;51.828;7.872;2022-10-16T00:26:25;11.32;;;4.13;;
66601;SDS011;53459;51.828;7.872;2022-10-16T00:28:51;11.77;;;4.40;;
66601;SDS011;53459;51.828;7.872;2022-10-16T00:31:17;10.30;;;4.43;;
66601;SDS011;53459;51.828;7.872;2022-10-16T00:33:43;12.45;;;4.45;;
66601;SDS011;53459;51.828;7.872;2022-10-16T00:36:20;11.38;;;4.05;;
66601;SDS011;53459;51.828;7.872;2022-10-16T00:38:45;11.32;;;4.32;;
66601;SDS011;53459;51.828;7.872;2022-10-16T00:41:15;14.73;;;4.40;;
66601;SDS011;53459;51.828;7.872;2022-10-16T00:43:44;10.35;;;4.40;;
66601;SDS011;53459;51.828;7.872;2022-10-16T00:46:23;10.63;;;4.83;;
66601;SDS011;53459;51.828;7.872;2022-10-16T00:48:54;14.73;;;4.90;;
66601;SDS011;53459;51.828;7.872;2022-10-16T00:51:21;12.48;;;5.03;;
66601;SDS011;53459;51.828;7.872;2022-10-16T00:53:48;11.67;;;4.77;;
66601;SDS011;53459;51.828;7.872;2022-10-16T00:56:13;10.65;;;4.38;;
66601;SDS011;53459;51.828;7.872;2022-10-16T00:58:39;10.33;;;4.30;;
66601;SDS011;53459;51.828;7.872;2022-10-16T01:01:04;11.07;;;4.43;;
66601;SDS011;53459;51.828;7.872;2022-10-16T01:03:30;12.50;;;4.60;;
66601;SDS011;53459;51.828;7.872;2022-10-16T01:06:09;11.20;;;4.00;;
66601;SDS011;53459;51.828;7.872;2022-10-16T01:08:52;9.75;;;4.50;;
66601;SDS011;53459;51.828;7.872;2022-10-16T01:11:22;9.10;;;4.10;;
66601;SDS011;53459;51.828;7.872;2022-10-16T01:13:50;9.02;;;3.80;;
66601;SDS011;53459;51.828;7.872;2022-10-16T01:16:38;10.88;;;3.90;;
66601;SDS011;53459;51.828;7.872;2022-10-16T01:21:38;12.10;;;4.10;;
66601;SDS011;53459;51.828;7.872;2022-10-16T01:27:02;9.63;;;3.75;;
66601;SDS011;53459;51.828;7.872;2022-10-16T01:30:11;10.60;;;4.03;;
66601;SDS011;53459;51.828;7.872;2022-10-16T01:32:17;8.93;;;3.53;;
66601;SDS011;53459;51.828;7.872;2022-10-16T01:36:53;9.07;;;3.50;;
66601;SDS011;53459;51.828;7.872;2022-10-16T01:39:21;10.38;;;3.40;;
66601;SDS011;53459;51.828;7.872;2022-10-16T01:42:23;8.10;;;3.58;;
66601;SDS011;53459;51.828;7.872;2022-10-16T01:44:49;8.80;;;3.47;;
66601;SDS011;53459;51.828;7.872;2022-10-16T01:47:15;8.32;;;3.60;;
66601;SDS011;53459;51.828;7.872;2022-10-16T01:49:42;9.95;;;3.28;;
66601;SDS011;53459;51.828;7.872;2022-10-16T01:53:56;10.73;;;3.50;;
66601;SDS011;53459;51.828;7.872;2022-10-16T01:56:22;7.88;;;3.50;;
66601;SDS011;53459;51.828;7.872;2022-10-16T01:58:52;7.45;;;3.30;;
66601;SDS011;53459;51.828;7.872;2022-10-16T02:01:19;8.18;;;3.47;;
66601;SDS011;53459;51.828;7.872;2022-10-16T02:03:45;7.78;;;3.55;;
66601;SDS011;53459;51.828;7.872;2022-10-16T02:06:12;10.27;;;3.57;;
66601;SDS011;53459;51.828;7.872;2022-10-16T02:08:37;7.18;;;3.33;;
66601;SDS011;53459;51.828;7.872;2022-10-16T02:11:05;8.77;;;3.13;;
66601;SDS011;53459;51.828;7.872;2022-10-16T02:13:33;9.27;;;3.10;;
66601;SDS011;53459;51.828;7.872;2022-10-16T02:15:59;8.82;;;3.10;;
66601;SDS011;53459;51.828;7.872;2022-10-16T02:18:25;7.93;;;3.00;;
66601;SDS011;53459;51.828;7.872;2022-10-16T02:23:00;9.48;;;2.80;;
66601;SDS011;53459;51.828;7.872;2022-10-16T02:25:36;10.00;;;3.30;;
66601;SDS011;53459;51.828;7.872;2022-10-16T02:28:10;7.27;;;2.87;;
66601;SDS011;53459;51.828;7.872;2022-10-16T02:30:51;7.95;;;3.00;;
66601;SDS011;53459;51.828;7.872;2022-10-16T02:33:17;8.50;;;3.15;;
66601;SDS011;53459;51.828;7.872;2022-10-16T02:35:44;8.40;;;3.27;;
66601;SDS011;53459;51.828;7.872;2022-10-16T02:38:11;8.45;;;3.08;;
66601;SDS011;53459;51.828;7.872;2022-10-16T02:40:37;7.30;;;2.85;;
66601;SDS011;53459;51.828;7.872;2022-10-16T02:43:37;10.93;;;2.70;;
66601;SDS011;53459;51.828;7.872;2022-10-16T02:46:03;7.47;;;2.97;;
66601;SDS011;53459;51.828;7.872;2022-10-16T02:48:28;9.17;;;3.30;;
66601;SDS011;53459;51.828;7.872;2022-10-16T02:51:23;7.95;;;3.38;;
66601;SDS011;53459;51.828;7.872;2022-10-16T02:53:49;8.67;;;3.30;;
66601;SDS011;53459;51.828;7.872;2022-10-16T02:57:18;9.10;;;2.78;;
66601;SDS011;53459;51.828;7.872;2022-10-16T02:59:43;8.37;;;2.83;;
66601;SDS011;53459;51.828;7.872;2022-10-16T03:02:09;6.17;;;2.60;;
66601;SDS011;53459;51.828;7.872;2022-10-16T03:04:34;6.63;;;2.60;;
66601;SDS011;53459;51.828;7.872;2022-10-16T03:06:59;9.43;;;2.80;;
66601;SDS011;53459;51.828;7.872;2022-10-16T03:09:25;7.17;;;2.30;;
66601;SDS011;53459;51.828;7.872;2022-10-16T03:11:50;5.77;;;2.13;;
66601;SDS011;53459;51.828;7.872;2022-10-16T03:14:15;6.20;;;2.43;;
66601;SDS011;53459;51.828;7.872;2022-10-16T03:16:41;8.25;;;2.60;;
66601;SDS011;53459;51.828;7.872;2022-10-16T03:19:06;5.77;;;2.20;;
66601;SDS011;53459;51.828;7.872;2022-10-16T03:21:32;7.23;;;2.50;;
66601;SDS011;53459;51.828;7.872;2022-10-16T03:23:57;8.20;;;2.60;;
66601;SDS011;53459;51.828;7.872;2022-10-16T03:26:22;7.73;;;2.40;;
66601;SDS011;53459;51.828;7.872;2022-10-16T03:28:48;6.78;;;2.47;;
66601;SDS011;53459;51.828;7.872;2022-10-16T03:33:06;7.65;;;2.10;;
66601;SDS011;53459;51.828;7.872;2022-10-16T03:35:31;7.43;;;2.23;;
66601;SDS011;53459;51.828;7.872;2022-10-16T03:37:57;7.45;;;2.20;;
66601;SDS011;53459;51.828;7.872;2022-10-16T03:40:23;6.03;;;2.13;;
66601;SDS011;53459;51.828;7.872;2022-10-16T03:42:48;7.27;;;2.17;;
66601;SDS011;53459;51.828;7.872;2022-10-16T03:45:14;7.13;;;2.10;;
66601;SDS011;53459;51.828;7.872;2022-10-16T03:47:39;7.40;;;2.08;;
66601;SDS011;53459;51.828;7.872;2022-10-16T03:50:04;6.53;;;2.00;;
66601;SDS011;53459;51.828;7.872;2022-10-16T03:52:30;7.63;;;2.50;;
66601;SDS011;53459;51.828;7.872;2022-10-16T03:54:57;6.25;;;2.08;;
66601;SDS011;53459;51.828;7.872;2022-10-16T03:57:22;5.70;;;2.13;;
66601;SDS011;53459;51.828;7.872;2022-10-16T03:59:48;5.80;;;2.00;;
66601;SDS011;53459;51.828;7.872;2022-10-16T04:02:13;6.03;;;2.23;;
66601;SDS011;53459;51.828;7.872;2022-10-16T04:07:34;5.05;;;2.00;;
66601;SDS011;53459;51.828;7.872;2022-10-16T04:09:59;5.50;;;2.00;;
66601;SDS011;53459;51.828;7.872;2022-10-16T04:13:25;5.80;;;1.83;;
66601;SDS011;53459;51.828;7.872;2022-10-16T04:15:51;5.07;;;2.20;;
66601;SDS011;53459;51.828;7.872;2022-10-16T04:18:16;6.60;;;2.10;;
66601;SDS011;53459;51.828;7.872;2022-10-16T04:20:41;4.80;;;1.90;;
66601;SDS011;53459;51.828;7.872;2022-10-16T04:23:07;6.30;;;2.10;;
66601;SDS011;53459;51.828;7.872;2022-10-16T04:25:32;7.83;;;2.17;;
66601;SDS011;53459;51.828;7.872;2022-10-16T04:27:57;8.53;;;2.33;;
66601;SDS011;53459;51.828;7.872;2022-10-16T04:30:23;7.43;;;2.40;;
66601;SDS011;53459;51.828;7.872;2022-10-16T04:32:49;6.43;;;2.27;;
66601;SDS011;53459;51.828;7.872;2022-10-16T04:35:15;6.65;;;2.20;;
66601;SDS011;53459;51.828;7.872;2022-10-16T04:37:40;6.20;;;2.20;;
66601;SDS011;53459;51.828;7.872;2022-10-16T04:40:06;5.80;;;2.00;;
66601;SDS011;53459;51.828;7.872;2022-10-16T04:43:05;6.13;;;2.00;;
66601;SDS011;53459;51.828;7.872;2022-10-16T04:45:30;6.15;;;2.10;;
66601;SDS011;53459;51.828;7.872;2022-10-16T04:47:59;6.10;;;2.20;;
66601;SDS011;53459;51.828;7.872;2022-10-16T04:51:03;7.43;;;1.98;;
66601;SDS011;53459;51.828;7.872;2022-10-16T04:53:29;6.33;;;1.97;;
66601;SDS011;53459;51.828;7.872;2022-10-16T04:55:54;5.93;;;2.00;;
66601;SDS011;53459;51.828;7.872;2022-10-16T04:58:21;4.55;;;1.70;;
66601;SDS011;53459;51.828;7.872;2022-10-16T05:00:46;5.07;;;1.90;;
66601;SDS011;53459;51.828;7.872;2022-10-16T05:03:12;6.10;;;1.80;;
66601;SDS011;53459;51.828;7.872;2022-10-16T05:05:41;4.22;;;1.63;;
66601;SDS011;53459;51.828;7.872;2022-10-16T05:08:07;6.07;;;1.70;;
66601;SDS011;53459;51.828;7.872;2022-10-16T05:11:45;5.38;;;1.60;;
66601;SDS011;53459;51.828;7.872;2022-10-16T05:14:10;4.30;;;1.57;;
66601;SDS011;53459;51.828;7.872;2022-10-16T05:16:35;5.20;;;1.70;;
66601;SDS011;53459;51.828;7.872;2022-10-16T05:19:01;7.17;;;1.90;;
66601;SDS011;53459;51.828;7.872;2022-10-16T05:21:26;3.85;;;1.50;;
66601;SDS011;53459;51.828;7.872;2022-10-16T05:23:52;5.40;;;1.60;;
66601;SDS011;53459;51.828;7.872;2022-10-16T05:26:17;6.57;;;1.75;;
66601;SDS011;53459;51.828;7.872;2022-10-16T05:28:43;5.30;;;1.80;;
66601;SDS011;53459;51.828;7.872;2022-10-16T05:31:08;5.70;;;1.87;;
66601;SDS011;53459;51.828;7.872;2022-10-16T05:33:34;5.85;;;1.65;;
66601;SDS011;53459;51.828;7.872;2022-10-16T05:36:03;4.87;;;1.67;;
66601;SDS011;53459;51.828;7.872;2022-10-16T05:39:58;5.68;;;1.80;;
66601;SDS011;53459;51.828;7.872;2022-10-16T05:42:23;4.07;;;1.60;;
66601;SDS011;53459;51.828;7.872;2022-10-16T05:44:48;3.97;;;1.50;;
66601;SDS011;53459;51.828;7.872;2022-10-16T05:47:14;4.97;;;1.60;;
66601;SDS011;53459;51.828;7.872;2022-10-16T05:49:39;5.13;;;1.65;;
66601;SDS011;53459;51.828;7.872;2022-10-16T05:52:05;4.80;;;1.57;;
66601;SDS011;53459;51.828;7.872;2022-10-16T05:54:30;5.97;;;1.70;;
66601;SDS011;53459;51.828;7.872;2022-10-16T05:56:55;5.35;;;1.60;;
66601;SDS011;53459;51.828;7.872;2022-10-16T05:59:21;5.00;;;1.70;;
66601;SDS011;53459;51.828;7.872;2022-10-16T06:01:46;5.13;;;1.47;;
66601;SDS011;53459;51.828;7.872;2022-10-16T06:04:11;4.07;;;1.60;;
66601;SDS011;53459;51.828;7.872;2022-10-16T06:06:37;4.83;;;1.57;;
66601;SDS011;53459;51.828;7.872;2022-10-16T06:09:03;5.70;;;1.52;;
66601;SDS011;53459;51.828;7.872;2022-10-16T06:11:49;4.47;;;1.67;;
66601;SDS011;53459;51.828;7.872;2022-10-16T06:14:15;5.50;;;1.63;;
66601;SDS011;53459;51.828;7.872;2022-10-16T06:16:40;4.40;;;1.60;;
66601;SDS011;53459;51.828;7.872;2022-10-16T06:19:06;3.70;;;1.30;;
66601;SDS011;53459;51.828;7.872;2022-10-16T06:23:28;5.95;;;1.50;;
66601;SDS011;53459;51.828;7.872;2022-10-16T06:25:53;3.85;;;1.45;;
66601;SDS011;53459;51.828;7.872;2022-10-16T06:28:18;4.20;;;1.50;;
66601;SDS011;53459;51.828;7.872;2022-10-16T06:30:44;5.17;;;1.60;;
66601;SDS011;53459;51.828;7.872;2022-10-16T06:33:10;4.03;;;1.50;;
66601;SDS011;53459;51.828;7.872;2022-10-16T06:35:35;6.25;;;1.65;;
66601;SDS011;53459;51.828;7.872;2022-10-16T06:38:01;6.40;;;1.50;;
66601;SDS011;53459;51.828;7.872;2022-10-16T06:40:26;5.77;;;1.70;;
66601;SDS011;53459;51.828;7.872;2022-10-16T06:42:54;5.90;;;1.60;;
66601;SDS011;53459;51.828;7.872;2022-10-16T06:45:19;4.83;;;1.30;;
66601;SDS011;53459;51.828;7.872;2022-10-16T06:47:44;5.60;;;1.48;;
66601;SDS011;53459;51.828;7.872;2022-10-16T06:50:10;4.80;;;1.57;;
66601;SDS011;53459;51.828;7.872;2022-10-16T06:52:35;8.43;;;1.50;;
66601;SDS011;53459;51.828;7.872;2022-10-16T06:55:00;4.27;;;1.40;;
66601;SDS011;53459;51.828;7.872;2022-10-16T06:57:26;4.93;;;1.53;;
66601;SDS011;53459;51.828;7.872;2022-10-16T06:59:51;3.77;;;1.30;;
66601;SDS011;53459;51.828;7.872;2022-10-16T07:02:17;5.03;;;1.40;;
66601;SDS011;53459;51.828;7.872;2022-10-16T07:04:42;5.30;;;1.30;;
66601;SDS011;53459;51.828;7.872;2022-10-16T07:07:10;4.40;;;1.50;;
66601;SDS011;53459;51.828;7.872;2022-10-16T07:09:40;4.65;;;1.60;;
66601;SDS011;53459;51.828;7.872;2022-10-16T07:12:06;4.33;;;1.53;;
66601;SDS011;53459;51.828;7.872;2022-10-16T07:14:31;4.77;;;1.43;;
66601;SDS011;53459;51.828;7.872;2022-10-16T07:16:57;4.32;;;1.40;;
66601;SDS011;53459;51.828;7.872;2022-10-16T07:21:42;4.13;;;1.50;;
66601;SDS011;53459;51.828;7.872;2022-10-16T07:24:11;4.10;;;1.40;;
66601;SDS011;53459;51.828;7.872;2022-10-16T07:26:36;3.67;;;1.30;;
66601;SDS011;53459;51.828;7.872;2022-10-16T07:29:04;5.25;;;1.50;;
66601;SDS011;53459;51.828;7.872;2022-10-16T07:32:59;5.25;;;1.50;;
66601;SDS011;53459;51.828;7.872;2022-10-16T07:35:25;4.97;;;1.47;;
66601;SDS011;53459;51.828;7.872;2022-10-16T07:37:50;6.33;;;1.47;;
66601;SDS011;53459;51.828;7.872;2022-10-16T07:40:15;3.87;;;1.50;;
66601;SDS011;53459;51.828;7.872;2022-10-16T07:44:12;4.22;;;1.40;;
66601;SDS011;53459;51.828;7.872;2022-10-16T07:46:38;5.07;;;1.50;;
66601;SDS011;53459;51.828;7.872;2022-10-16T07:49:03;4.90;;;1.60;;
66601;SDS011;53459;51.828;7.872;2022-10-16T07:51:28;5.63;;;1.67;;
66601;SDS011;53459;51.828;7.872;2022-10-16T07:53:54;6.38;;;1.50;;
66601;SDS011;53459;51.828;7.872;2022-10-16T07:56:20;4.37;;;1.40;;
66601;SDS011;53459;51.828;7.872;2022-10-16T07:58:46;5.82;;;1.65;;
66601;SDS011;53459;51.828;7.872;2022-10-16T08:01:12;5.20;;;1.60;;
66601;SDS011;53459;51.828;7.872;2022-10-16T08:03:46;4.85;;;1.67;;
66601;SDS011;53459;51.828;7.872;2022-10-16T08:06:11;4.75;;;1.65;;
66601;SDS011;53459;51.828;7.872;2022-10-16T08:08:37;5.03;;;1.60;;
66601;SDS011;53459;51.828;7.872;2022-10-16T08:11:02;6.05;;;1.50;;
66601;SDS011;53459;51.828;7.872;2022-10-16T08:14:23;5.70;;;1.60;;
66601;SDS011;53459;51.828;7.872;2022-10-16T08:16:48;4.23;;;1.47;;
66601;SDS011;53459;51.828;7.872;2022-10-16T08:19:14;4.73;;;1.43;;
66601;SDS011;53459;51.828;7.872;2022-10-16T08:21:40;4.65;;;1.48;;
66601;SDS011;53459;51.828;7.872;2022-10-16T08:24:06;5.00;;;1.60;;
66601;SDS011;53459;51.828;7.872;2022-10-16T08:26:31;5.37;;;1.70;;
66601;SDS011;53459;51.828;7.872;2022-10-16T08:28:56;4.57;;;1.60;;
66601;SDS011;53459;51.828;7.872;2022-10-16T08:31:22;5.25;;;1.70;;
66601;SDS011;53459;51.828;7.872;2022-10-16T08:33:47;5.73;;;1.60;;
66601;SDS011;53459;51.828;7.872;2022-10-16T08:36:13;6.33;;;1.90;;
66601;SDS011;53459;51.828;7.872;2022-10-16T08:38:39;4.30;;;1.60;;
66601;SDS011;53459;51.828;7.872;2022-10-16T08:49:17;5.00;;;1.70;;
66601;SDS011;53459;51.828;7.872;2022-10-16T08:51:43;6.57;;;1.73;;
66601;SDS011;53459;51.828;7.872;2022-10-16T08:56:53;5.93;;;1.77;;
66601;SDS011;53459;51.828;7.872;2022-10-16T08:59:43;5.20;;;1.85;;
66601;SDS011;53459;51.828;7.872;2022-10-16T09:02:32;6.22;;;1.65;;
66601;SDS011;53459;51.828;7.872;2022-10-16T09:10:22;4.78;;;1.70;;
66601;SDS011;53459;51.828;7.872;2022-10-16T09:13:13;6.70;;;1.88;;
66601;SDS011;53459;51.828;7.872;2022-10-16T09:15:43;5.07;;;1.55;;
66601;SDS011;53459;51.828;7.872;2022-10-16T09:23:34;6.72;;;1.67;;
66601;SDS011;53459;51.828;7.872;2022-10-16T09:26:00;4.75;;;1.35;;
66601;SDS011;53459;51.828;7.872;2022-10-16T09:28:26;5.97;;;1.70;;
66601;SDS011;53459;51.828;7.872;2022-10-16T09:30:52;5.20;;;1.60;;
66601;SDS011;53459;51.828;7.872;2022-10-16T09:33:18;5.13;;;1.20;;
66601;SDS011;53459;51.828;7.872;2022-10-16T09:35:45;6.20;;;1.60;;
66601;SDS011;53459;51.828;7.872;2022-10-16T09:52:27;4.43;;;0.90;;
66601;SDS011;53459;51.828;7.872;2022-10-16T09:54:53;5.37;;;1.20;;
66601;SDS011;53459;51.828;7.872;2022-10-16T09:57:20;8.43;;;1.20;;
66601;SDS011;53459;51.828;7.872;2022-10-16T09:59:49;4.95;;;1.00;;
66601;SDS011;53459;51.828;7.872;2022-10-16T10:02:15;5.17;;;1.00;;
66601;SDS011;53459;51.828;7.872;2022-10-16T10:04:49;5.03;;;1.10;;
66601;SDS011;53459;51.828;7.872;2022-10-16T10:07:19;4.57;;;1.00;;
66601;SDS011;53459;51.828;7.872;2022-10-16T10:09:46;4.72;;;1.02;;
66601;SDS011;53459;51.828;7.872;2022-10-16T10:12:21;3.35;;;0.80;;
66601;SDS011;53459;51.828;7.872;2022-10-16T10:14:48;6.47;;;1.10;;
66601;SDS011;53459;51.828;7.872;2022-10-16T10:19:52;4.80;;;0.98;;
66601;SDS011;53459;51.828;7.872;2022-10-16T10:24:44;5.27;;;1.00;;
66601;SDS011;53459;51.828;7.872;2022-10-16T10:27:11;3.30;;;0.70;;
66601;SDS011;53459;51.828;7.872;2022-10-16T10:29:43;3.72;;;0.85;;
66601;SDS011;53459;51.828;7.872;2022-10-16T10:32:17;3.22;;;0.73;;
66601;SDS011;53459;51.828;7.872;2022-10-16T10:42:43;3.95;;;1.20;;
66601;SDS011;53459;51.828;7.872;2022-10-16T10:54:56;4.18;;;1.00;;
66601;SDS011;53459;51.828;7.872;2022-10-16T11:01:37;6.32;;;1.40;;
66601;SDS011;53459;51.828;7.872;2022-10-16T11:06:31;6.20;;;1.33;;
66601;SDS011;53459;51.828;7.872;2022-10-16T11:09:02;5.82;;;1.23;;
66601;SDS011;53459;51.828;7.872;2022-10-16T11:11:39;7.15;;;1.35;;
66601;SDS011;53459;51.828;7.872;2022-10-16T11:16:39;6.43;;;1.30;;
66601;SDS011;53459;51.828;7.872;2022-10-16T11:21:54;4.77;;;1.00;;
66601;SDS011;53459;51.828;7.872;2022-10-16T11:24:23;3.72;;;1.40;;
66601;SDS011;53459;51.828;7.872;2022-10-16T11:26:54;4.68;;;1.05;;
66601;SDS011;53459;51.828;7.872;2022-10-16T11:29:23;4.53;;;1.00;;
66601;SDS011;53459;51.828;7.872;2022-10-16T11:31:50;4.65;;;1.08;;
66601;SDS011;53459;51.828;7.872;2022-10-16T11:36:53;4.82;;;0.95;;
66601;SDS011;53459;51.828;7.872;2022-10-16T11:41:54;4.28;;;1.10;;
66601;SDS011;53459;51.828;7.872;2022-10-16T11:48:36;5.55;;;1.30;;
66601;SDS011;53459;51.828;7.872;2022-10-16T11:53:41;5.70;;;1.30;;
66601;SDS011;53459;51.828;7.872;2022-10-16T11:56:07;6.97;;;1.48;;
66601;SDS011;53459;51.828;7.872;2022-10-16T12:01:22;4.72;;;1.60;;
66601;SDS011;53459;51.828;7.872;2022-10-16T12:03:58;5.90;;;1.30;;
66601;SDS011;53459;51.828;7.872;2022-10-16T12:06:31;6.00;;;1.60;;
66601;SDS011;53459;51.828;7.872;2022-10-16T12:08:59;5.97;;;1.40;;
66601;SDS011;53459;51.828;7.872;2022-10-16T12:16:37;4.75;;;1.65;;
66601;SDS011;53459;51.828;7.872;2022-10-16T12:19:42;4.60;;;1.90;;
66601;SDS011;53459;51.828;7.872;2022-10-16T12:22:15;6.27;;;1.70;;
66601;SDS011;53459;51.828;7.872;2022-10-16T12:24:43;4.97;;;1.60;;
66601;SDS011;53459;51.828;7.872;2022-10-16T12:32:03;6.93;;;1.80;;
66601;SDS011;53459;51.828;7.872;2022-10-16T12:34:29;4.70;;;1.67;;
66601;SDS011;53459;51.828;7.872;2022-10-16T12:37:07;4.45;;;1.48;;
66601;SDS011;53459;51.828;7.872;2022-10-16T12:39:33;4.83;;;1.37;;
66601;SDS011;53459;51.828;7.872;2022-10-16T12:42:03;4.50;;;1.33;;
66601;SDS011;53459;51.828;7.872;2022-10-16T12:44:33;4.47;;;1.50;;
66601;SDS011;53459;51.828;7.872;2022-10-16T12:46:59;4.82;;;1.65;;
66601;SDS011;53459;51.828;7.872;2022-10-16T12:51:53;5.68;;;1.30;;
66601;SDS011;53459;51.828;7.872;2022-10-16T12:54:36;5.20;;;1.20;;
66601;SDS011;53459;51.828;7.872;2022-10-16T13:05:00;4.65;;;1.20;;
66601;SDS011;53459;51.828;7.872;2022-10-16T13:15:19;4.73;;;1.00;;
66601;SDS011;53459;51.828;7.872;2022-10-16T13:18:33;3.78;;;1.00;;
66601;SDS011;53459;51.828;7.872;2022-10-16T13:20:40;4.00;;;1.00;;
66601;SDS011;53459;51.828;7.872;2022-10-16T13:23:14;4.67;;;1.10;;
66601;SDS011;53459;51.828;7.872;2022-10-16T13:28:29;6.35;;;1.17;;
66601;SDS011;53459;51.828;7.872;2022-10-16T13:30:56;4.20;;;1.20;;
66601;SDS011;53459;51.828;7.872;2022-10-16T13:35:49;4.00;;;1.03;;
66601;SDS011;53459;51.828;7.872;2022-10-16T13:38:16;4.53;;;1.20;;
66601;SDS011;53459;51.828;7.872;2022-10-16T13:40:49;4.95;;;1.30;;
66601;SDS011;53459;51.828;7.872;2022-10-16T13:43:15;4.80;;;1.23;;
66601;SDS011;53459;51.828;7.872;2022-10-16T13:45:41;4.50;;;1.20;;
66601;SDS011;53459;51.828;7.872;2022-10-16T13:48:17;3.93;;;1.20;;
66601;SDS011;53459;51.828;7.872;2022-10-16T13:52:15;4.50;;;1.50;;
66601;SDS011;53459;51.828;7.872;2022-10-16T13:54:41;4.40;;;1.30;;
66601;SDS011;53459;51.828;7.872;2022-10-16T13:57:07;4.33;;;1.30;;
66601;SDS011;53459;51.828;7.872;2022-10-16T13:59:33;4.32;;;1.20;;
66601;SDS011;53459;51.828;7.872;2022-10-16T14:01:59;5.00;;;1.40;;
66601;SDS011;53459;51.828;7.872;2022-10-16T14:04:27;5.50;;;1.70;;
66601;SDS011;53459;51.828;7.872;2022-10-16T14:06:54;5.80;;;1.48;;
66601;SDS011;53459;51.828;7.872;2022-10-16T14:09:23;4.43;;;1.45;;
66601;SDS011;53459;51.828;7.872;2022-10-16T14:11:51;4.00;;;1.50;;
66601;SDS011;53459;51.828;7.872;2022-10-16T14:14:18;4.25;;;1.30;;
66601;SDS011;53459;51.828;7.872;2022-10-16T14:16:44;3.83;;;1.23;;
66601;SDS011;53459;51.828;7.872;2022-10-16T14:19:21;5.13;;;1.27;;
66601;SDS011;53459;51.828;7.872;2022-10-16T14:21:48;4.30;;;1.17;;
66601;SDS011;53459;51.828;7.872;2022-10-16T14:24:19;4.88;;;1.10;;
66601;SDS011;53459;51.828;7.872;2022-10-16T14:26:47;4.60;;;1.13;;
66601;SDS011;53459;51.828;7.872;2022-10-16T14:29:17;5.43;;;1.40;;
66601;SDS011;53459;51.828;7.872;2022-10-16T14:31:53;5.13;;;1.10;;
66601;SDS011;53459;51.828;7.872;2022-10-16T14:34:23;3.90;;;1.20;;
66601;SDS011;53459;51.828;7.872;2022-10-16T14:37:28;3.58;;;1.25;;
66601;SDS011;53459;51.828;7.872;2022-10-16T14:39:54;4.40;;;1.20;;
66601;SDS011;53459;51.828;7.872;2022-10-16T14:42:37;5.78;;;1.17;;
66601;SDS011;53459;51.828;7.872;2022-10-16T14:45:07;3.63;;;1.10;;
66601;SDS011;53459;51.828;7.872;2022-10-16T14:47:34;4.88;;;1.10;;
66601;SDS011;53459;51.828;7.872;2022-10-16T14:50:01;5.68;;;1.25;;
66601;SDS011;53459;51.828;7.872;2022-10-16T14:52:26;5.63;;;1.40;;
66601;SDS011;53459;51.828;7.872;2022-10-16T14:54:52;4.43;;;1.10;;
66601;SDS011;53459;51.828;7.872;2022-10-16T14:57:22;4.70;;;1.20;;
66601;SDS011;53459;51.828;7.872;2022-10-16T14:59:48;5.38;;;1.20;;
66601;SDS011;53459;51.828;7.872;2022-10-16T15:04:49;5.25;;;1.45;;
66601;SDS011;53459;51.828;7.872;2022-10-16T15:07:14;5.63;;;1.50;;
66601;SDS011;53459;51.828;7.872;2022-10-16T15:09:40;6.13;;;1.48;;
66601;SDS011;53459;51.828;7.872;2022-10-16T15:12:05;4.77;;;1.47;;
66601;SDS011;53459;51.828;7.872;2022-10-16T15:14:30;5.53;;;1.40;;
66601;SDS011;53459;51.828;7.872;2022-10-16T15:16:56;5.00;;;1.30;;
66601;SDS011;53459;51.828;7.872;2022-10-16T15:19:21;5.50;;;1.33;;
66601;SDS011;53459;51.828;7.872;2022-10-16T15:21:47;4.70;;;1.27;;
66601;SDS011;53459;51.828;7.872;2022-10-16T15:24:13;4.30;;;1.42;;
66601;SDS011;53459;51.828;7.872;2022-10-16T15:26:38;4.53;;;1.30;;
66601;SDS011;53459;51.828;7.872;2022-10-16T15:29:04;5.03;;;1.88;;
66601;SDS011;53459;51.828;7.872;2022-10-16T15:31:30;5.23;;;1.80;;
66601;SDS011;53459;51.828;7.872;2022-10-16T15:33:55;6.25;;;1.70;;
66601;SDS011;53459;51.828;7.872;2022-10-16T15:36:33;4.27;;;1.50;;
66601;SDS011;53459;51.828;7.872;2022-10-16T15:39:01;4.95;;;1.40;;
66601;SDS011;53459;51.828;7.872;2022-10-16T15:41:26;5.43;;;1.40;;
66601;SDS011;53459;51.828;7.872;2022-10-16T15:43:52;6.35;;;1.48;;
66601;SDS011;53459;51.828;7.872;2022-10-16T15:48:46;3.80;;;1.35;;
66601;SDS011;53459;51.828;7.872;2022-10-16T15:51:12;5.88;;;1.67;;
66601;SDS011;53459;51.828;7.872;2022-10-16T15:53:37;4.77;;;1.23;;
66601;SDS011;53459;51.828;7.872;2022-10-16T15:56:06;4.77;;;1.50;;
66601;SDS011;53459;51.828;7.872;2022-10-16T16:00:35;4.40;;;1.55;;
66601;SDS011;53459;51.828;7.872;2022-10-16T16:03:01;4.63;;;1.70;;
66601;SDS011;53459;51.828;7.872;2022-10-16T16:05:26;5.93;;;1.40;;
66601;SDS011;53459;51.828;7.872;2022-10-16T16:07:52;5.70;;;1.50;;
66601;SDS011;53459;51.828;7.872;2022-10-16T16:10:18;5.77;;;1.43;;
66601;SDS011;53459;51.828;7.872;2022-10-16T16:12:45;4.65;;;1.50;;
66601;SDS011;53459;51.828;7.872;2022-10-16T16:15:16;5.60;;;1.58;;
66601;SDS011;53459;51.828;7.872;2022-10-16T16:17:42;4.83;;;1.70;;
66601;SDS011;53459;51.828;7.872;2022-10-16T16:20:09;4.40;;;1.50;;
66601;SDS011;53459;51.828;7.872;2022-10-16T16:23:44;4.63;;;1.40;;
66601;SDS011;53459;51.828;7.872;2022-10-16T16:26:14;5.00;;;1.40;;
66601;SDS011;53459;51.828;7.872;2022-10-16T16:29:41;4.30;;;1.45;;
66601;SDS011;53459;51.828;7.872;2022-10-16T16:32:06;4.63;;;1.53;;
66601;SDS011;53459;51.828;7.872;2022-10-16T16:34:32;5.20;;;1.63;;
66601;SDS011;53459;51.828;7.872;2022-10-16T16:36:57;4.20;;;1.60;;
66601;SDS011;53459;51.828;7.872;2022-10-16T16:39:23;6.23;;;1.87;;
66601;SDS011;53459;51.828;7.872;2022-10-16T16:41:49;5.15;;;1.70;;
66601;SDS011;53459;51.828;7.872;2022-10-16T16:44:15;6.88;;;1.80;;
66601;SDS011;53459;51.828;7.872;2022-10-16T16:46:41;4.82;;;1.75;;
66601;SDS011;53459;51.828;7.872;2022-10-16T16:49:09;6.13;;;2.10;;
66601;SDS011;53459;51.828;7.872;2022-10-16T16:54:48;4.70;;;1.90;;
66601;SDS011;53459;51.828;7.872;2022-10-16T16:57:20;5.40;;;2.15;;
66601;SDS011;53459;51.828;7.872;2022-10-16T17:00:44;4.50;;;1.80;;
66601;SDS011;53459;51.828;7.872;2022-10-16T17:03:10;6.40;;;1.77;;
66601;SDS011;53459;51.828;7.872;2022-10-16T17:05:37;4.53;;;1.80;;
66601;SDS011;53459;51.828;7.872;2022-10-16T17:08:05;4.83;;;1.90;;
66601;SDS011;53459;51.828;7.872;2022-10-16T17:10:44;5.80;;;2.10;;
66601;SDS011;53459;51.828;7.872;2022-10-16T17:13:11;5.40;;;2.10;;
66601;SDS011;53459;51.828;7.872;2022-10-16T17:15:37;5.13;;;2.10;;
66601;SDS011;53459;51.828;7.872;2022-10-16T17:18:02;7.63;;;2.10;;
66601;SDS011;53459;51.828;7.872;2022-10-16T17:20:28;5.57;;;2.22;;
66601;SDS011;53459;51.828;7.872;2022-10-16T17:23:13;7.63;;;2.65;;
66601;SDS011;53459;51.828;7.872;2022-10-16T17:25:39;5.90;;;3.00;;
66601;SDS011;53459;51.828;7.872;2022-10-16T17:28:05;5.53;;;2.70;;
66601;SDS011;53459;51.828;7.872;2022-10-16T17:30:31;7.18;;;2.45;;
66601;SDS011;53459;51.828;7.872;2022-10-16T17:32:58;6.35;;;2.30;;
66601;SDS011;53459;51.828;7.872;2022-10-16T17:35:24;6.28;;;2.28;;